createdAt,value
2018-03-03T00:00:16.715Z,-5.60
2018-03-03T00:02:46.051Z,-5.60
2018-03-03T00:05:15.815Z,-5.60
2018-03-03T00:07:44.799Z,-5.60
2018-03-03T00:10:14.259Z,-5.60
2018-03-03T00:12:43.208Z,-5.70
2018-03-03T00:15:12.250Z,-5.80
2018-03-03T00:17:42.055Z,-5.90
2018-03-03T00:20:11.836Z,-5.80
2018-03-03T00:22:41.633Z,-5.90
2018-03-03T00:25:10.671Z,-5.80
2018-03-03T00:27:40.422Z,-5.80
2018-03-03T00:30:09.397Z,-6.00
2018-03-03T00:32:38.419Z,-6.00
2018-03-03T00:35:07.410Z,-5.90
2018-03-03T00:37:36.767Z,-6.00
2018-03-03T00:40:06.514Z,-5.90
2018-03-03T00:42:35.484Z,-6.00
2018-03-03T00:45:04.844Z,-6.00
2018-03-03T00:47:34.635Z,-5.90
2018-03-03T00:50:03.585Z,-6.00
2018-03-03T00:52:32.728Z,-6.00
2018-03-03T00:55:03.301Z,-6.00
2018-03-03T00:57:32.713Z,-6.00
2018-03-03T01:00:01.703Z,-6.00
2018-03-03T01:02:30.654Z,-5.90
2018-03-03T01:05:00.462Z,-5.90
2018-03-03T01:07:29.410Z,-5.90
2018-03-03T01:09:59.242Z,-5.00
2018-03-03T01:12:28.284Z,-6.10
2018-03-03T01:14:57.644Z,-6.10
2018-03-03T01:17:27.121Z,-6.10
2018-03-03T01:19:56.877Z,-6.20
2018-03-03T01:22:26.253Z,-6.20
2018-03-03T01:24:56.104Z,-6.10
2018-03-03T01:27:25.862Z,-6.00
2018-03-03T01:29:55.249Z,-6.00
2018-03-03T01:32:24.196Z,-6.10
2018-03-03T01:34:53.191Z,-5.60
2018-03-03T01:37:22.154Z,-6.20
2018-03-03T01:39:51.515Z,-6.10
2018-03-03T01:42:20.991Z,-6.10
2018-03-03T01:44:51.527Z,-6.10
2018-03-03T01:47:20.600Z,-6.20
2018-03-03T01:49:50.063Z,-6.20
2018-03-03T01:52:19.082Z,-6.20
2018-03-03T01:54:48.030Z,-6.20
2018-03-03T01:57:17.767Z,-6.30
2018-03-03T01:59:46.767Z,-6.30
2018-03-03T02:02:16.355Z,-6.20
2018-03-03T02:04:45.765Z,-6.20
2018-03-03T02:07:14.742Z,-6.30
2018-03-03T02:09:44.457Z,-6.30
2018-03-03T02:12:13.435Z,-6.20
2018-03-03T02:14:42.427Z,-6.30
2018-03-03T02:17:11.840Z,-6.30
2018-03-03T02:19:40.776Z,-6.40
2018-03-03T02:22:10.534Z,-6.30
2018-03-03T02:24:39.535Z,-6.30
2018-03-03T02:27:09.345Z,-6.30
2018-03-03T02:29:38.683Z,-6.30
2018-03-03T02:32:08.025Z,-6.40
2018-03-03T02:34:37.768Z,-6.40
2018-03-03T02:37:06.776Z,-6.40
2018-03-03T02:39:35.821Z,-6.40
2018-03-03T02:42:05.638Z,-6.30
2018-03-03T02:44:34.965Z,-6.30
2018-03-03T02:47:03.947Z,-6.30
2018-03-03T02:49:32.924Z,-6.30
2018-03-03T02:52:02.660Z,-6.10
2018-03-03T02:54:31.684Z,-6.40
2018-03-03T02:57:01.522Z,-6.40
2018-03-03T02:59:31.262Z,-6.40
2018-03-03T03:02:00.604Z,-6.40
2018-03-03T03:04:29.621Z,-6.40
2018-03-03T03:06:58.597Z,-6.40
2018-03-03T03:09:30.208Z,-6.50
2018-03-03T03:11:59.152Z,-6.40
2018-03-03T03:14:28.108Z,-6.40
2018-03-03T03:16:57.491Z,-6.50
2018-03-03T03:19:26.947Z,-6.50
2018-03-03T03:21:55.901Z,-6.60
2018-03-03T03:24:24.955Z,-6.60
2018-03-03T03:26:54.664Z,-6.70
2018-03-03T03:29:24.445Z,-6.60
2018-03-03T03:31:53.406Z,-6.60
2018-03-03T03:34:22.358Z,-6.70
2018-03-03T03:36:52.087Z,-6.70
2018-03-03T03:39:21.150Z,-6.70
2018-03-03T03:41:50.132Z,-6.70
2018-03-03T03:44:19.841Z,-6.70
2018-03-03T03:46:48.803Z,-6.70
2018-03-03T03:49:18.185Z,-6.80
2018-03-03T03:51:47.151Z,-6.80
2018-03-03T03:54:16.517Z,-6.80
2018-03-03T03:56:45.897Z,-6.80
2018-03-03T03:59:14.847Z,-6.80
2018-03-03T04:01:44.236Z,-6.80
2018-03-03T04:04:13.236Z,-6.80
2018-03-03T04:06:42.185Z,-6.80
2018-03-03T04:09:11.276Z,-7.00
2018-03-03T04:11:40.240Z,-6.90
2018-03-03T04:14:09.218Z,-6.90
2018-03-03T04:16:39.002Z,-6.90
2018-03-03T04:19:07.969Z,-6.90
2018-03-03T04:21:37.004Z,-6.90
2018-03-03T04:24:05.985Z,-6.40
2018-03-03T04:26:35.705Z,-6.90
2018-03-03T04:29:05.418Z,-7.00
2018-03-03T04:31:34.578Z,-7.00
2018-03-03T04:34:03.528Z,-7.00
2018-03-03T04:36:32.564Z,-6.90
2018-03-03T04:39:01.513Z,-7.00
2018-03-03T04:41:30.476Z,-7.00
2018-03-03T04:44:00.189Z,-6.90
2018-03-03T04:46:31.274Z,-7.00
2018-03-03T04:49:00.234Z,-7.00
2018-03-03T04:51:30.021Z,-6.90
2018-03-03T04:53:59.757Z,-7.00
2018-03-03T04:56:28.740Z,-7.00
2018-03-03T04:59:14.179Z,-7.10
2018-03-03T05:15:19.224Z,-7.00
2018-03-03T05:18:07.272Z,-7.10
2018-03-03T05:20:42.129Z,-7.00
2018-03-03T05:23:16.695Z,-7.20
2018-03-03T05:25:51.346Z,-7.20
2018-03-03T05:41:58.504Z,-7.10
2018-03-03T05:44:33.168Z,-7.10
2018-03-03T05:47:10.801Z,-7.10
2018-03-03T05:49:40.537Z,-7.00
2018-03-03T05:52:21.176Z,-7.10
2018-03-03T05:55:08.926Z,-7.20
2018-03-03T05:57:43.484Z,-7.10
2018-03-03T06:00:18.196Z,-7.10
2018-03-03T06:02:53.588Z,-7.00
2018-03-03T06:05:28.130Z,-7.20
2018-03-03T06:08:02.549Z,-6.90
2018-03-03T06:10:34.172Z,-7.20
2018-03-03T06:13:03.317Z,-7.20
2018-03-03T06:15:32.724Z,-7.20
2018-03-03T06:18:02.474Z,-7.20
2018-03-03T06:20:31.440Z,-7.20
2018-03-03T06:23:01.163Z,-7.20
2018-03-03T06:25:30.503Z,-7.20
2018-03-03T06:27:59.496Z,-7.20
2018-03-03T06:30:28.882Z,-7.10
2018-03-03T06:32:58.254Z,-7.00
2018-03-03T06:35:27.256Z,-7.00
2018-03-03T06:37:56.228Z,-7.00
2018-03-03T06:40:26.012Z,-7.00
2018-03-03T06:42:55.005Z,-7.00
2018-03-03T06:45:24.919Z,-7.00
2018-03-03T06:47:53.909Z,-7.00
2018-03-03T06:50:22.948Z,-7.00
2018-03-03T06:52:52.680Z,-6.90
2018-03-03T06:55:21.684Z,-6.90
2018-03-03T06:57:51.075Z,-6.90
2018-03-03T07:00:20.169Z,-6.90
2018-03-03T07:02:49.244Z,-6.80
2018-03-03T07:05:18.221Z,-6.80
2018-03-03T07:07:47.853Z,-6.80
2018-03-03T07:10:17.934Z,-6.70
2018-03-03T07:12:47.834Z,-6.70
2018-03-03T07:15:17.367Z,-6.60
2018-03-03T07:17:46.813Z,-6.70
2018-03-03T07:20:17.637Z,-6.50
2018-03-03T07:22:47.048Z,-6.50
2018-03-03T07:25:16.157Z,-6.40
2018-03-03T07:27:45.904Z,-6.30
2018-03-03T07:30:16.313Z,-6.30
2018-03-03T07:32:45.356Z,-6.30
2018-03-03T07:35:15.248Z,-6.10
2018-03-03T07:37:45.070Z,-6.10
2018-03-03T07:40:14.439Z,-6.00
2018-03-03T07:42:44.237Z,-5.90
2018-03-03T07:45:13.640Z,-5.90
2018-03-03T07:47:42.627Z,-5.10
2018-03-03T07:50:12.474Z,-5.90
2018-03-03T07:52:41.490Z,-5.70
2018-03-03T07:55:10.573Z,-5.70
2018-03-03T07:57:40.310Z,-5.60
2018-03-03T08:00:13.490Z,-5.50
2018-03-03T08:02:44.374Z,-5.50
2018-03-03T08:05:15.646Z,-5.50
2018-03-03T08:07:45.922Z,-5.50
2018-03-03T08:10:14.915Z,-5.30
2018-03-03T08:12:44.576Z,-5.40
2018-03-03T08:15:13.586Z,-5.30
2018-03-03T08:17:42.601Z,-5.20
2018-03-03T08:20:12.278Z,-5.20
2018-03-03T08:22:42.745Z,-5.00
2018-03-03T08:25:13.686Z,-4.70
2018-03-03T08:27:43.862Z,-4.60
2018-03-03T08:30:13.474Z,-4.70
2018-03-03T08:32:42.980Z,-4.60
2018-03-03T08:35:12.645Z,-4.60
2018-03-03T08:37:43.339Z,-4.60
2018-03-03T08:40:12.742Z,-4.70
2018-03-03T08:42:42.480Z,-4.60
2018-03-03T08:45:12.001Z,-4.50
2018-03-03T08:47:42.396Z,-4.50
2018-03-03T08:50:11.359Z,-4.30
2018-03-03T08:52:41.295Z,-4.30
2018-03-03T08:55:10.284Z,-4.20
2018-03-03T08:57:40.081Z,-4.20
2018-03-03T09:00:09.095Z,-4.10
2018-03-03T09:02:39.862Z,-4.00
2018-03-03T09:05:09.688Z,-3.90
2018-03-03T09:07:39.656Z,-3.90
2018-03-03T09:10:09.874Z,-3.70
2018-03-03T09:12:39.267Z,-3.70
2018-03-03T09:15:08.269Z,-3.70
2018-03-03T09:17:38.050Z,-3.70
2018-03-03T09:20:08.825Z,-2.80
2018-03-03T09:22:39.623Z,-3.40
2018-03-03T09:25:09.825Z,-3.30
2018-03-03T09:27:38.896Z,-3.30
2018-03-03T09:30:08.897Z,-3.00
2018-03-03T09:32:37.890Z,-2.90
2018-03-03T09:35:07.373Z,-2.90
2018-03-03T09:37:37.766Z,-2.90
2018-03-03T09:40:07.373Z,-2.90
2018-03-03T09:42:36.895Z,-2.70
2018-03-03T09:45:07.825Z,-2.70
2018-03-03T09:47:37.493Z,-2.60
2018-03-03T09:50:06.500Z,-2.60
2018-03-03T09:52:36.473Z,-2.40
2018-03-03T09:55:05.470Z,-2.40
2018-03-03T09:57:34.452Z,-2.30
2018-03-03T10:00:06.578Z,-2.20
2018-03-03T10:02:35.744Z,-2.10
2018-03-03T10:05:05.188Z,-1.90
2018-03-03T10:07:35.006Z,-1.90
2018-03-03T10:10:04.485Z,-1.80
2018-03-03T10:12:34.221Z,-1.80
2018-03-03T10:15:03.323Z,-1.60
2018-03-03T10:17:32.521Z,-1.50
2018-03-03T10:20:01.531Z,-1.50
2018-03-03T10:22:30.497Z,-1.40
2018-03-03T10:25:00.436Z,-1.40
2018-03-03T10:27:29.448Z,-1.40
2018-03-03T10:29:58.477Z,-1.20
2018-03-03T10:32:27.524Z,-1.20
2018-03-03T10:34:57.210Z,-1.20
2018-03-03T10:37:26.472Z,-1.20
2018-03-03T10:39:55.843Z,-1.10
2018-03-03T10:42:25.991Z,-1.00
2018-03-03T10:44:55.397Z,-1.10
2018-03-03T10:47:27.236Z,-0.90
2018-03-03T10:49:57.494Z,-0.70
2018-03-03T10:52:27.356Z,-0.70
2018-03-03T10:54:59.279Z,-0.60
2018-03-03T10:57:29.619Z,-0.70
2018-03-03T10:59:58.685Z,-0.60
2018-03-03T11:02:28.352Z,-0.60
2018-03-03T11:04:57.365Z,-0.40
2018-03-03T11:07:26.442Z,-0.50
2018-03-03T11:09:56.046Z,-0.60
2018-03-03T11:12:25.872Z,-0.40
2018-03-03T11:14:55.645Z,-0.30
2018-03-03T11:17:26.190Z,-0.30
2018-03-03T11:19:55.201Z,-0.30
2018-03-03T11:22:24.317Z,-0.20
2018-03-03T11:24:54.226Z,-0.10
2018-03-03T11:27:24.020Z,0.20
2018-03-03T11:29:53.952Z,0.50
2018-03-03T11:32:23.778Z,0.60
2018-03-03T11:34:52.860Z,0.70
2018-03-03T11:37:23.282Z,0.70
2018-03-03T11:39:52.660Z,0.70
2018-03-03T11:42:22.178Z,0.70
2018-03-03T11:44:51.185Z,0.80
2018-03-03T11:47:20.971Z,1.00
2018-03-03T11:49:50.921Z,1.20
2018-03-03T11:52:20.579Z,1.50
2018-03-03T11:54:50.699Z,1.70
2018-03-03T11:57:21.595Z,1.90
2018-03-03T11:59:51.426Z,2.50
2018-03-03T12:02:21.008Z,3.00
2018-03-03T12:04:50.099Z,3.40
2018-03-03T12:07:20.447Z,3.90
2018-03-03T12:09:50.079Z,4.20
2018-03-03T12:12:19.081Z,4.50
2018-03-03T12:14:50.324Z,4.40
2018-03-03T12:17:19.340Z,4.30
2018-03-03T12:19:48.930Z,4.40
2018-03-03T12:22:18.847Z,4.80
2018-03-03T12:24:50.154Z,5.00
2018-03-03T12:27:20.205Z,5.20
2018-03-03T12:30:05.849Z,5.40
2018-03-03T12:32:34.876Z,6.00
2018-03-03T12:35:03.907Z,6.70
2018-03-03T12:37:32.895Z,6.40
2018-03-03T12:40:24.107Z,6.40
2018-03-03T12:43:07.378Z,6.20
2018-03-03T12:45:36.351Z,6.60
2018-03-03T12:48:05.346Z,6.80
2018-03-03T12:50:34.701Z,7.10
2018-03-03T12:53:03.657Z,7.50
2018-03-03T12:55:32.644Z,7.50
2018-03-03T12:58:01.659Z,7.70
2018-03-03T13:00:31.422Z,7.30
2018-03-03T13:03:01.144Z,7.60
2018-03-03T13:05:30.506Z,8.00
2018-03-03T13:07:59.876Z,8.60
2018-03-03T13:10:28.859Z,8.90
2018-03-03T13:12:57.952Z,8.90
2018-03-03T13:15:27.836Z,9.60
2018-03-03T13:17:56.787Z,10.00
2018-03-03T13:20:26.574Z,10.20
2018-03-03T13:22:55.537Z,10.20
2018-03-03T13:25:24.541Z,10.00
2018-03-03T13:27:53.477Z,9.90
2018-03-03T13:30:22.411Z,10.20
2018-03-03T13:32:51.392Z,9.80
2018-03-03T13:35:20.551Z,9.60
2018-03-03T13:37:49.533Z,10.50
2018-03-03T13:40:18.542Z,10.30
2018-03-03T13:42:47.551Z,10.40
2018-03-03T13:45:17.348Z,10.60
2018-03-03T13:47:46.284Z,10.90
2018-03-03T13:50:15.297Z,10.40
2018-03-03T13:52:44.692Z,10.20
2018-03-03T13:55:14.506Z,10.70
2018-03-03T13:57:43.853Z,11.00
2018-03-03T14:00:12.921Z,10.70
2018-03-03T14:02:42.286Z,11.10
2018-03-03T14:05:11.382Z,11.20
2018-03-03T14:07:41.526Z,11.40
2018-03-03T14:10:10.533Z,11.00
2018-03-03T14:12:41.100Z,10.90
2018-03-03T14:15:10.132Z,11.80
2018-03-03T14:17:39.927Z,12.10
2018-03-03T14:20:09.350Z,12.20
2018-03-03T14:22:38.312Z,12.40
2018-03-03T14:25:07.261Z,12.40
2018-03-03T14:27:36.248Z,12.40
2018-03-03T14:30:07.510Z,12.20
2018-03-03T14:32:37.223Z,11.40
2018-03-03T14:35:06.577Z,11.60
2018-03-03T14:37:35.565Z,11.90
2018-03-03T14:40:04.564Z,11.70
2018-03-03T14:42:33.570Z,11.30
2018-03-03T14:45:02.551Z,11.40
2018-03-03T14:47:31.817Z,10.90
2018-03-03T14:50:01.553Z,11.10
2018-03-03T14:52:30.540Z,11.30
2018-03-03T14:55:00.343Z,9.80
2018-03-03T14:57:30.129Z,11.70
2018-03-03T14:59:59.173Z,11.70
2018-03-03T15:02:28.181Z,11.50
2018-03-03T15:04:57.545Z,11.30
2018-03-03T15:07:27.309Z,11.40
2018-03-03T15:09:56.280Z,11.90
2018-03-03T15:12:25.755Z,12.10
2018-03-03T15:14:55.545Z,11.60
2018-03-03T15:17:24.626Z,11.20
2018-03-03T15:19:54.008Z,11.10
2018-03-03T15:22:23.848Z,10.60
2018-03-03T15:24:53.548Z,10.10
2018-03-03T15:27:23.354Z,10.00
2018-03-03T15:29:53.204Z,9.50
2018-03-03T15:32:24.129Z,9.10
2018-03-03T15:34:53.523Z,8.20
2018-03-03T15:37:23.271Z,6.90
2018-03-03T15:39:52.257Z,5.90
2018-03-03T15:42:22.908Z,5.40
2018-03-03T15:44:52.711Z,5.10
2018-03-03T15:47:23.332Z,4.50
2018-03-03T15:49:53.517Z,3.80
2018-03-03T15:52:23.284Z,3.40
2018-03-03T15:54:53.098Z,2.60
2018-03-03T15:57:22.162Z,2.40
2018-03-03T15:59:51.983Z,2.10
2018-03-03T16:02:22.493Z,1.80
2018-03-03T16:04:52.115Z,1.70
2018-03-03T16:07:21.645Z,1.60
2018-03-03T16:09:51.457Z,1.50
2018-03-03T16:12:20.538Z,1.40
2018-03-03T16:14:50.237Z,5.00
2018-03-03T16:17:19.249Z,1.00
2018-03-03T16:19:48.653Z,1.00
2018-03-03T16:22:17.757Z,0.80
2018-03-03T16:24:46.741Z,0.60
2018-03-03T16:27:15.792Z,0.70
2018-03-03T16:29:46.199Z,0.60
2018-03-03T16:32:16.622Z,0.60
2018-03-03T16:34:45.583Z,0.30
2018-03-03T16:37:15.358Z,0.40
2018-03-03T16:39:45.153Z,0.40
2018-03-03T16:42:15.228Z,0.20
2018-03-03T16:44:44.352Z,0.10
2018-03-03T16:47:14.309Z,0.00
2018-03-03T16:49:43.427Z,0.00
2018-03-03T16:52:13.933Z,-0.10
2018-03-03T16:54:42.993Z,-0.10
2018-03-03T16:57:13.722Z,-0.20
2018-03-03T16:59:43.532Z,-0.30
2018-03-03T17:02:13.374Z,-0.40
2018-03-03T17:04:42.445Z,-0.40
2018-03-03T17:07:12.261Z,1.00
2018-03-03T17:09:42.953Z,-0.60
2018-03-03T17:12:11.904Z,-0.60
2018-03-03T17:14:41.352Z,-0.70
2018-03-03T17:17:10.427Z,-0.70
2018-03-03T17:19:40.282Z,-0.70
2018-03-03T17:22:10.040Z,-0.80
2018-03-03T17:24:39.008Z,-0.80
2018-03-03T17:27:08.442Z,-0.80
2018-03-03T17:29:37.837Z,-0.80
2018-03-03T17:32:07.102Z,-0.80
2018-03-03T17:34:36.834Z,-0.80
2018-03-03T17:37:06.181Z,-0.90
2018-03-03T17:39:35.953Z,-0.90
2018-03-03T17:42:05.692Z,-0.90
2018-03-03T17:44:36.245Z,-1.00
2018-03-03T17:47:05.965Z,-1.10
2018-03-03T17:49:35.745Z,-1.10
2018-03-03T17:52:05.498Z,-1.10
2018-03-03T17:54:34.528Z,-1.10
2018-03-03T17:57:03.645Z,-1.20
2018-03-03T17:59:32.632Z,-1.10
2018-03-03T18:02:01.590Z,-1.10
2018-03-03T18:04:30.982Z,-1.00
2018-03-03T18:06:59.961Z,-1.10
2018-03-03T18:09:30.165Z,-1.10
2018-03-03T18:11:59.894Z,-1.20
2018-03-03T18:14:29.630Z,-1.20
2018-03-03T18:16:58.616Z,-1.20
2018-03-03T18:19:30.393Z,-1.30
2018-03-03T18:21:59.426Z,-1.20
2018-03-03T18:24:35.764Z,-1.20
2018-03-03T18:27:06.294Z,-1.30
2018-03-03T18:29:36.050Z,-1.20
2018-03-03T18:32:05.423Z,-1.30
2018-03-03T18:34:35.245Z,-1.20
2018-03-03T18:37:04.970Z,-1.30
2018-03-03T18:39:33.944Z,-1.30
2018-03-03T18:42:03.356Z,-1.30
2018-03-03T18:44:33.099Z,-1.30
2018-03-03T18:47:02.542Z,-1.40
2018-03-03T18:49:31.544Z,-1.50
2018-03-03T18:52:01.327Z,-1.40
2018-03-03T18:54:30.364Z,-1.40
2018-03-03T18:57:00.102Z,-1.40
2018-03-03T18:59:29.918Z,-1.50
2018-03-03T19:01:59.666Z,-1.50
2018-03-03T19:04:30.192Z,-1.50
2018-03-03T19:06:59.234Z,-1.50
2018-03-03T19:09:28.308Z,-1.50
2018-03-03T19:11:57.302Z,-1.60
2018-03-03T19:14:27.101Z,-1.50
2018-03-03T19:16:56.108Z,-1.50
2018-03-03T19:19:25.770Z,-1.60
2018-03-03T19:21:54.913Z,-0.70
2018-03-03T19:24:24.648Z,-1.60
2018-03-03T19:26:53.674Z,-1.60
2018-03-03T19:29:23.508Z,-1.70
2018-03-03T19:31:52.931Z,-1.60
2018-03-03T19:34:22.714Z,-1.60
2018-03-03T19:36:52.143Z,-1.70
2018-03-03T19:39:21.182Z,-1.70
2018-03-03T19:41:50.178Z,-1.70
2018-03-03T19:44:20.003Z,-1.70
2018-03-03T19:46:49.441Z,-1.70
2018-03-03T19:49:19.270Z,-1.70
2018-03-03T19:51:48.678Z,-1.70
2018-03-03T19:54:17.878Z,-1.80
2018-03-03T19:56:46.907Z,-1.70
2018-03-03T19:59:16.861Z,-1.80
2018-03-03T20:01:46.638Z,-1.90
2018-03-03T20:04:16.717Z,-1.90
2018-03-03T20:06:46.038Z,-2.00
2018-03-03T20:09:15.843Z,-2.00
2018-03-03T20:11:45.606Z,-2.00
2018-03-03T20:14:15.525Z,-2.00
2018-03-03T20:16:44.546Z,-2.00
2018-03-03T20:19:14.329Z,-2.00
2018-03-03T20:21:44.117Z,-2.00
2018-03-03T20:24:13.723Z,-2.10
2018-03-03T20:26:43.487Z,-2.10
2018-03-03T20:29:13.756Z,-2.00
2018-03-03T20:31:43.427Z,-1.90
2018-03-03T20:34:12.842Z,-1.90
2018-03-03T20:36:42.342Z,-2.00
2018-03-03T20:39:11.907Z,-2.00
2018-03-03T20:41:41.326Z,-2.00
2018-03-03T20:44:10.392Z,-2.00
2018-03-03T20:46:39.536Z,-1.90
2018-03-03T20:49:09.601Z,-1.90
2018-03-03T20:51:38.709Z,-1.90
2018-03-03T20:54:09.326Z,-1.90
2018-03-03T20:56:38.349Z,-1.80
2018-03-03T20:59:07.736Z,-1.70
2018-03-03T21:01:37.690Z,-1.80
2018-03-03T21:04:07.043Z,-1.80
2018-03-03T21:06:36.861Z,-1.60
2018-03-03T21:09:06.695Z,-1.70
2018-03-03T21:11:40.413Z,-1.60
2018-03-03T21:14:10.201Z,-1.70
2018-03-03T21:16:39.235Z,-1.60
2018-03-03T21:19:08.296Z,-1.60
2018-03-03T21:21:37.310Z,-1.60
2018-03-03T21:24:06.344Z,-1.60
2018-03-03T21:26:36.647Z,-1.70
2018-03-03T21:29:06.426Z,-1.80
2018-03-03T21:31:35.490Z,-1.80
2018-03-03T21:34:05.319Z,-1.90
2018-03-03T21:36:34.380Z,-2.00
2018-03-03T21:39:03.394Z,-2.00
2018-03-03T21:41:33.163Z,-2.00
2018-03-03T21:44:02.138Z,-2.10
2018-03-03T21:46:31.433Z,-2.20
2018-03-03T21:49:00.447Z,-2.10
2018-03-03T21:51:29.837Z,-2.20
2018-03-03T21:53:58.830Z,-2.30
2018-03-03T21:56:28.852Z,-2.10
2018-03-03T21:58:58.950Z,-2.10
2018-03-03T22:01:28.362Z,-2.20
2018-03-03T22:03:57.747Z,-2.20
2018-03-03T22:06:26.746Z,-2.20
2018-03-03T22:08:56.520Z,-2.20
2018-03-03T22:11:26.771Z,-2.10
2018-03-03T22:13:55.732Z,-2.10
2018-03-03T22:16:25.992Z,-2.10
2018-03-03T22:18:55.049Z,-2.10
2018-03-03T22:21:24.834Z,-2.20
2018-03-03T22:23:53.845Z,-2.20
2018-03-03T22:26:23.689Z,-2.10
2018-03-03T22:28:52.683Z,-2.20
2018-03-03T22:31:21.752Z,-2.20
2018-03-03T22:33:50.695Z,-2.10
2018-03-03T22:36:19.669Z,-2.00
2018-03-03T22:38:48.706Z,-2.00
2018-03-03T22:41:19.246Z,-1.90
2018-03-03T22:43:48.225Z,-1.80
2018-03-03T22:46:17.805Z,-1.70
2018-03-03T22:48:46.814Z,-1.50
2018-03-03T22:51:16.655Z,-1.60
2018-03-03T22:53:45.611Z,-1.50
2018-03-03T22:56:14.605Z,-1.50
2018-03-03T22:58:43.623Z,-1.40
2018-03-03T23:01:13.362Z,-1.40
2018-03-03T23:03:42.658Z,-1.40
2018-03-03T23:06:11.627Z,-1.40
2018-03-03T23:08:40.667Z,-1.40
2018-03-03T23:11:09.625Z,-1.40
2018-03-03T23:13:39.333Z,-1.50
2018-03-03T23:16:09.174Z,-1.50
2018-03-03T23:18:38.577Z,-1.40
2018-03-03T23:21:07.540Z,-1.40
2018-03-03T23:23:37.288Z,-1.50
2018-03-03T23:26:06.285Z,-1.40
2018-03-03T23:28:35.245Z,-1.30
2018-03-03T23:31:04.254Z,-1.30
2018-03-03T23:33:33.198Z,-1.30
2018-03-03T23:36:02.447Z,-0.30
2018-03-03T23:38:31.816Z,-1.40
2018-03-03T23:41:01.564Z,-1.30
2018-03-03T23:43:30.519Z,-1.30
2018-03-03T23:45:59.981Z,-1.30
2018-03-03T23:48:29.386Z,-1.40
2018-03-03T23:50:58.344Z,-1.30
2018-03-03T23:53:27.353Z,-1.30
2018-03-03T23:55:56.360Z,-1.30
2018-03-03T23:58:25.345Z,-1.20
